createdAt,value
2022-11-05T00:10:05.321Z,7.00
2022-11-05T00:25:18.860Z,7.75
2022-11-05T00:40:20.262Z,8.23
2022-11-05T00:55:21.679Z,8.55
2022-11-05T01:10:23.048Z,8.55
2022-11-05T01:25:24.421Z,10.50
2022-11-05T01:40:25.851Z,10.63
2022-11-05T01:55:27.229Z,13.55
2022-11-05T02:10:28.633Z,12.88
2022-11-05T02:25:29.972Z,13.32
2022-11-05T02:40:31.337Z,13.02
2022-11-05T02:55:32.670Z,12.20
2022-11-05T03:10:34.008Z,10.95
2022-11-05T03:25:35.332Z,9.45
2022-11-05T03:40:36.715Z,7.80
2022-11-05T03:55:38.037Z,7.82
2022-11-05T04:10:58.426Z,8.23
2022-11-05T04:25:59.700Z,9.03
2022-11-05T04:41:01.039Z,9.13
2022-11-05T04:56:02.378Z,7.65
2022-11-05T05:11:03.916Z,5.53
2022-11-05T05:26:05.238Z,6.25
2022-11-05T05:41:06.559Z,6.22
2022-11-05T05:56:07.907Z,5.95
2022-11-05T06:11:09.306Z,7.93
2022-11-05T06:26:10.836Z,9.98
2022-11-05T06:41:12.161Z,9.05
2022-11-05T06:56:13.488Z,8.65
2022-11-05T07:11:14.911Z,10.00
2022-11-05T07:26:16.344Z,10.85
2022-11-05T07:41:18.234Z,10.10
2022-11-05T07:56:19.586Z,12.10
2022-11-05T08:11:20.994Z,10.25
2022-11-05T08:26:22.405Z,9.85
2022-11-05T08:41:23.856Z,9.50
2022-11-05T08:56:25.251Z,7.82
2022-11-05T09:11:49.627Z,7.30
2022-11-05T09:26:48.309Z,7.97
2022-11-05T09:41:50.004Z,7.20
2022-11-05T09:56:51.442Z,7.72
2022-11-05T10:26:54.084Z,7.93
2022-11-05T10:41:55.427Z,7.47
2022-11-05T10:56:56.767Z,7.35
2022-11-05T11:11:59.358Z,7.57
2022-11-05T11:27:00.695Z,9.93
2022-11-05T11:42:02.317Z,9.88
2022-11-05T11:57:03.647Z,8.85
2022-11-05T12:12:05.122Z,9.40
2022-11-05T12:27:06.666Z,9.98
2022-11-05T12:42:08.000Z,9.60
2022-11-05T12:57:09.378Z,8.00
2022-11-05T13:12:10.735Z,7.10
2022-11-05T13:27:12.471Z,5.43
2022-11-05T13:42:13.842Z,7.50
2022-11-05T13:57:15.258Z,9.13
2022-11-05T14:12:16.637Z,9.40
2022-11-05T14:27:17.987Z,9.00
2022-11-05T14:42:19.354Z,10.05
2022-11-05T14:57:20.698Z,10.18
2022-11-05T15:12:22.093Z,11.38
2022-11-05T15:27:23.435Z,10.77
2022-11-05T15:42:25.265Z,9.82
2022-11-05T15:57:26.713Z,9.10
2022-11-05T16:12:28.123Z,8.82
2022-11-05T16:27:29.635Z,11.35
2022-11-05T16:42:30.970Z,8.85
2022-11-05T16:57:32.341Z,8.75
2022-11-05T17:12:36.312Z,13.32
2022-11-05T17:27:37.663Z,11.55
2022-11-05T17:42:38.997Z,8.80
2022-11-05T17:57:40.360Z,8.20
2022-11-05T18:12:41.746Z,11.93
2022-11-05T18:27:43.096Z,9.70
2022-11-05T18:42:44.587Z,8.48
2022-11-05T18:57:46.154Z,8.60
2022-11-05T19:12:47.589Z,8.60
2022-11-05T19:27:51.449Z,9.63
2022-11-05T19:42:52.804Z,10.10
2022-11-05T19:57:54.197Z,9.52
2022-11-05T20:12:57.776Z,7.20
2022-11-05T20:27:59.156Z,6.03
2022-11-05T20:43:00.582Z,4.88
2022-11-05T20:58:02.250Z,5.20
2022-11-05T21:13:03.667Z,6.50
2022-11-05T21:28:07.267Z,10.07
2022-11-05T21:43:08.648Z,8.18
2022-11-05T21:58:30.963Z,10.25
2022-11-05T22:13:32.255Z,13.43
2022-11-05T22:28:33.585Z,18.02
2022-11-05T22:43:34.954Z,18.38
2022-11-05T22:58:36.286Z,13.98
2022-11-05T23:13:37.656Z,22.75
2022-11-05T23:28:39.070Z,12.85
2022-11-05T23:43:59.472Z,12.77
2022-11-05T23:59:00.812Z,11.93
